createdAt,value
2018-03-07T00:00:43.059Z,77.38
2018-03-07T00:03:10.626Z,75.94
2018-03-07T00:05:38.169Z,74.84
2018-03-07T00:08:06.431Z,74.81
2018-03-07T00:10:33.995Z,75.36
2018-03-07T00:13:01.962Z,74.28
2018-03-07T00:15:29.494Z,75.43
2018-03-07T00:17:57.294Z,76.70
2018-03-07T00:20:25.676Z,77.66
2018-03-07T00:22:53.255Z,77.71
2018-03-07T00:25:20.935Z,76.94
2018-03-07T00:27:48.491Z,77.47
2018-03-07T00:30:16.036Z,77.74
2018-03-07T00:32:43.623Z,77.48
2018-03-07T00:35:11.221Z,77.72
2018-03-07T00:37:38.826Z,77.40
2018-03-07T00:40:06.408Z,76.08
2018-03-07T00:42:33.994Z,77.07
2018-03-07T00:45:01.527Z,77.26
2018-03-07T00:47:29.436Z,77.08
2018-03-07T00:49:57.031Z,77.50
2018-03-07T00:52:25.101Z,77.84
2018-03-07T00:54:52.662Z,77.99
2018-03-07T00:57:20.236Z,77.84
2018-03-07T00:59:47.788Z,77.65
2018-03-07T01:02:15.354Z,77.89
2018-03-07T01:04:42.931Z,78.10
2018-03-07T01:07:10.504Z,78.07
2018-03-07T01:09:38.444Z,77.62
2018-03-07T01:12:05.983Z,77.17
2018-03-07T01:14:33.902Z,76.97
2018-03-07T01:17:01.866Z,76.53
2018-03-07T01:19:29.411Z,76.49
2018-03-07T01:21:56.994Z,76.48
2018-03-07T01:24:24.538Z,76.84
2018-03-07T01:26:52.115Z,76.84
2018-03-07T01:29:19.668Z,76.56
2018-03-07T01:31:47.534Z,75.91
2018-03-07T01:34:15.070Z,75.96
2018-03-07T01:36:42.877Z,75.43
2018-03-07T01:39:10.423Z,75.33
2018-03-07T01:41:37.983Z,75.11
2018-03-07T01:44:05.560Z,74.99
2018-03-07T01:46:33.622Z,75.05
2018-03-07T01:49:01.194Z,74.87
2018-03-07T01:51:40.420Z,74.79
2018-03-07T01:54:07.987Z,75.37
2018-03-07T01:56:35.581Z,75.48
2018-03-07T01:59:03.126Z,75.44
2018-03-07T02:01:30.665Z,75.53
2018-03-07T02:03:58.724Z,75.33
2018-03-07T02:06:26.254Z,75.12
2018-03-07T02:08:53.797Z,75.80
2018-03-07T02:11:21.369Z,75.20
2018-03-07T02:13:48.907Z,74.83
2018-03-07T02:16:16.486Z,74.85
2018-03-07T02:18:44.073Z,74.95
2018-03-07T02:21:11.602Z,74.98
2018-03-07T02:23:39.181Z,75.14
2018-03-07T02:26:06.758Z,75.42
2018-03-07T02:28:34.336Z,74.93
2018-03-07T02:31:01.870Z,74.92
2018-03-07T02:33:29.454Z,74.58
2018-03-07T02:35:57.260Z,74.80
2018-03-07T02:38:24.795Z,74.88
2018-03-07T02:40:52.378Z,75.22
2018-03-07T02:43:19.977Z,74.87
2018-03-07T02:45:47.529Z,74.58
2018-03-07T02:48:15.101Z,74.75
2018-03-07T02:50:43.053Z,74.78
2018-03-07T02:53:10.647Z,74.72
2018-03-07T02:55:38.227Z,74.36
2018-03-07T02:58:05.763Z,74.31
2018-03-07T03:00:33.346Z,74.53
2018-03-07T03:03:01.259Z,74.53
2018-03-07T03:05:29.295Z,74.67
2018-03-07T03:07:57.236Z,75.03
2018-03-07T03:10:24.819Z,75.59
2018-03-07T03:12:52.393Z,75.46
2018-03-07T03:15:19.986Z,74.92
2018-03-07T03:17:47.530Z,74.93
2018-03-07T03:20:15.071Z,74.97
2018-03-07T03:22:43.055Z,74.61
2018-03-07T03:25:10.950Z,74.92
2018-03-07T03:27:38.483Z,75.06
2018-03-07T03:30:06.062Z,75.19
2018-03-07T03:32:33.604Z,74.60
2018-03-07T03:35:01.183Z,74.39
2018-03-07T03:37:28.722Z,74.15
2018-03-07T03:39:56.361Z,73.90
2018-03-07T03:42:23.867Z,73.76
2018-03-07T03:44:51.406Z,73.79
2018-03-07T03:47:18.990Z,73.73
2018-03-07T03:49:46.537Z,74.12
2018-03-07T03:52:14.191Z,74.16
2018-03-07T03:54:41.740Z,74.66
2018-03-07T03:57:09.310Z,74.32
2018-03-07T03:59:37.261Z,73.89
2018-03-07T04:02:04.841Z,73.75
2018-03-07T04:04:32.383Z,73.45
2018-03-07T04:07:00.176Z,73.46
2018-03-07T04:09:27.768Z,74.03
2018-03-07T04:11:55.589Z,74.33
2018-03-07T04:14:23.176Z,74.97
2018-03-07T04:16:50.720Z,74.83
2018-03-07T04:19:18.296Z,74.99
2018-03-07T04:21:45.850Z,75.60
2018-03-07T04:24:13.418Z,75.98
2018-03-07T04:26:40.957Z,76.05
2018-03-07T04:29:08.529Z,75.82
2018-03-07T04:31:36.068Z,75.46
2018-03-07T04:34:03.928Z,75.83
2018-03-07T04:36:31.813Z,75.69
2018-03-07T04:38:59.343Z,75.96
2018-03-07T04:41:26.919Z,75.72
2018-03-07T04:43:54.451Z,75.87
2018-03-07T04:46:22.022Z,75.45
2018-03-07T04:48:49.554Z,75.26
2018-03-07T04:51:17.359Z,75.23
2018-03-07T04:53:44.934Z,75.33
2018-03-07T04:56:12.707Z,75.51
2018-03-07T04:58:40.282Z,75.90
2018-03-07T05:01:07.863Z,75.75
2018-03-07T05:03:35.438Z,75.21
2018-03-07T05:06:02.983Z,75.15
2018-03-07T05:08:30.558Z,75.10
2018-03-07T05:10:58.562Z,75.50
2018-03-07T05:13:26.152Z,75.88
2018-03-07T05:15:53.694Z,75.33
2018-03-07T05:18:21.310Z,75.08
2018-03-07T05:20:48.868Z,74.71
2018-03-07T05:23:16.419Z,74.57
2018-03-07T05:25:44.011Z,74.84
2018-03-07T05:28:11.968Z,73.94
2018-03-07T05:30:39.884Z,73.45
2018-03-07T05:33:07.462Z,72.92
2018-03-07T05:35:34.990Z,73.15
2018-03-07T05:38:02.651Z,72.99
2018-03-07T05:40:30.240Z,72.42
2018-03-07T05:42:58.187Z,72.51
2018-03-07T05:45:25.838Z,72.48
2018-03-07T05:47:53.414Z,72.61
2018-03-07T05:50:20.966Z,72.80
2018-03-07T05:52:48.548Z,73.73
2018-03-07T05:55:16.140Z,73.63
2018-03-07T05:57:43.684Z,73.52
2018-03-07T06:00:11.503Z,73.82
2018-03-07T06:02:39.259Z,73.97
2018-03-07T06:05:07.630Z,74.07
2018-03-07T06:07:35.176Z,73.94
2018-03-07T06:10:02.870Z,73.64
2018-03-07T06:12:30.418Z,73.89
2018-03-07T06:14:58.103Z,74.58
2018-03-07T06:17:25.646Z,74.69
2018-03-07T06:19:53.314Z,74.36
2018-03-07T06:22:21.810Z,73.67
2018-03-07T06:24:49.386Z,72.79
2018-03-07T06:27:17.218Z,72.51
2018-03-07T06:29:45.685Z,72.11
2018-03-07T06:32:13.356Z,71.93
2018-03-07T06:34:40.927Z,71.61
2018-03-07T06:37:08.474Z,70.31
2018-03-07T06:39:36.096Z,70.31
2018-03-07T06:42:03.655Z,70.16
2018-03-07T06:44:31.295Z,70.11
2018-03-07T06:46:58.856Z,70.04
2018-03-07T06:49:26.438Z,70.36
2018-03-07T06:51:54.026Z,70.18
2018-03-07T06:54:21.575Z,69.70
2018-03-07T06:56:49.141Z,69.81
2018-03-07T06:59:16.817Z,69.43
2018-03-07T07:01:44.358Z,70.00
2018-03-07T07:04:12.385Z,69.68
2018-03-07T07:06:40.050Z,69.31
2018-03-07T07:09:07.664Z,69.23
2018-03-07T07:11:35.596Z,69.34
2018-03-07T07:14:03.819Z,70.17
2018-03-07T07:16:32.109Z,70.42
2018-03-07T07:18:59.922Z,70.32
2018-03-07T07:21:28.361Z,70.25
2018-03-07T07:23:55.980Z,70.08
2018-03-07T07:26:23.523Z,69.42
2018-03-07T07:28:52.277Z,69.04
2018-03-07T07:31:20.638Z,66.31
2018-03-07T07:33:48.698Z,63.93
2018-03-07T07:36:16.252Z,62.61
2018-03-07T07:38:43.912Z,62.21
2018-03-07T07:41:11.468Z,62.35
2018-03-07T07:43:39.059Z,62.48
2018-03-07T07:46:06.663Z,62.66
2018-03-07T07:48:34.243Z,62.81
2018-03-07T07:51:01.806Z,62.34
2018-03-07T07:53:29.384Z,62.11
2018-03-07T07:55:57.855Z,61.67
2018-03-07T07:58:25.567Z,61.96
2018-03-07T08:00:53.661Z,62.58
2018-03-07T08:03:21.212Z,62.18
2018-03-07T08:05:48.832Z,62.06
2018-03-07T08:08:16.376Z,61.57
2018-03-07T08:10:43.930Z,60.66
2018-03-07T08:13:11.514Z,59.84
2018-03-07T08:15:39.841Z,60.72
2018-03-07T08:18:07.427Z,60.38
2018-03-07T08:20:35.031Z,59.36
2018-03-07T08:23:02.602Z,58.53
2018-03-07T08:25:31.004Z,58.94
2018-03-07T08:27:58.884Z,59.23
2018-03-07T08:30:26.468Z,58.89
2018-03-07T08:32:54.069Z,58.29
2018-03-07T08:35:21.892Z,58.11
2018-03-07T08:37:49.614Z,58.29
2018-03-07T08:40:18.021Z,57.53
2018-03-07T08:42:45.568Z,57.07
2018-03-07T08:45:13.262Z,57.66
2018-03-07T08:47:40.864Z,56.85
2018-03-07T08:50:08.406Z,56.83
2018-03-07T08:52:35.942Z,56.84
2018-03-07T08:55:03.533Z,56.54
2018-03-07T08:57:31.081Z,57.13
2018-03-07T08:59:58.664Z,56.88
2018-03-07T09:02:26.220Z,56.97
2018-03-07T09:04:53.831Z,56.81
2018-03-07T09:07:21.375Z,56.63
2018-03-07T09:09:48.979Z,56.84
2018-03-07T09:12:16.822Z,57.42
2018-03-07T09:14:44.751Z,57.35
2018-03-07T09:17:12.314Z,56.84
2018-03-07T09:19:39.912Z,56.29
2018-03-07T09:22:07.662Z,56.13
2018-03-07T09:24:35.217Z,55.36
2018-03-07T09:27:02.780Z,55.46
2018-03-07T09:29:31.343Z,55.72
2018-03-07T09:31:58.979Z,55.86
2018-03-07T09:34:26.561Z,55.64
2018-03-07T09:36:54.106Z,55.60
2018-03-07T09:39:21.744Z,56.18
2018-03-07T09:41:49.381Z,56.10
2018-03-07T09:44:16.935Z,56.66
2018-03-07T09:46:44.522Z,56.72
2018-03-07T09:49:12.128Z,56.48
2018-03-07T09:51:39.688Z,56.06
2018-03-07T09:54:07.593Z,55.79
2018-03-07T09:56:35.241Z,56.07
2018-03-07T09:59:02.826Z,56.21
2018-03-07T10:01:30.541Z,56.33
2018-03-07T10:03:58.122Z,56.56
2018-03-07T10:06:25.672Z,56.91
2018-03-07T10:08:53.225Z,57.06
2018-03-07T10:11:20.807Z,57.17
2018-03-07T10:13:48.361Z,57.26
2018-03-07T10:16:15.969Z,57.27
2018-03-07T10:18:43.521Z,57.40
2018-03-07T10:21:11.072Z,57.40
2018-03-07T10:23:38.664Z,57.68
2018-03-07T10:26:06.259Z,57.80
2018-03-07T10:28:33.931Z,57.71
2018-03-07T10:31:01.557Z,57.73
2018-03-07T10:33:29.109Z,57.76
2018-03-07T10:35:57.021Z,58.02
2018-03-07T10:38:24.624Z,57.98
2018-03-07T10:40:53.275Z,59.02
2018-03-07T10:43:20.820Z,57.91
2018-03-07T10:45:48.685Z,57.74
2018-03-07T10:48:16.676Z,57.97
2018-03-07T10:50:44.312Z,57.87
2018-03-07T10:53:11.906Z,58.18
2018-03-07T10:55:39.458Z,58.26
2018-03-07T10:58:07.053Z,58.22
2018-03-07T11:00:39.475Z,58.24
2018-03-07T11:03:07.018Z,58.61
2018-03-07T11:05:34.650Z,58.77
2018-03-07T11:08:02.211Z,58.99
2018-03-07T11:10:30.191Z,59.10
2018-03-07T11:12:57.784Z,59.32
2018-03-07T11:15:25.391Z,59.45
2018-03-07T11:17:53.753Z,59.44
2018-03-07T11:20:21.371Z,59.64
2018-03-07T11:22:48.970Z,59.35
2018-03-07T11:25:16.524Z,59.50
2018-03-07T11:27:44.146Z,59.62
2018-03-07T11:30:11.694Z,59.47
2018-03-07T11:32:39.456Z,59.54
2018-03-07T11:35:07.076Z,59.61
2018-03-07T11:37:34.625Z,59.35
2018-03-07T11:40:02.186Z,59.40
2018-03-07T11:42:30.045Z,59.63
2018-03-07T11:44:57.628Z,59.72
2018-03-07T11:47:25.196Z,59.57
2018-03-07T11:49:52.807Z,59.40
2018-03-07T11:52:20.578Z,59.41
2018-03-07T11:54:48.176Z,59.53
2018-03-07T11:57:15.806Z,59.58
2018-03-07T11:59:43.364Z,59.78
2018-03-07T12:02:11.497Z,59.98
2018-03-07T12:04:39.058Z,60.04
2018-03-07T12:07:06.641Z,60.00
2018-03-07T12:09:34.223Z,60.08
2018-03-07T12:12:01.794Z,60.48
2018-03-07T12:14:29.367Z,60.46
2018-03-07T12:16:57.602Z,60.44
2018-03-07T12:19:25.152Z,60.47
2018-03-07T12:21:52.699Z,60.10
2018-03-07T12:24:20.279Z,60.18
2018-03-07T12:26:48.336Z,60.26
2018-03-07T12:29:16.118Z,60.60
2018-03-07T12:31:43.734Z,60.77
2018-03-07T12:34:11.334Z,60.90
2018-03-07T12:36:38.940Z,61.00
2018-03-07T12:39:06.646Z,60.98
2018-03-07T12:41:34.264Z,61.01
2018-03-07T12:44:01.920Z,61.11
2018-03-07T12:46:31.200Z,61.22
2018-03-07T12:48:58.812Z,61.22
2018-03-07T12:51:27.339Z,61.24
2018-03-07T12:53:54.926Z,61.41
2018-03-07T12:56:22.564Z,61.25
2018-03-07T12:58:50.146Z,61.06
2018-03-07T13:01:17.804Z,61.01
2018-03-07T13:03:46.699Z,60.85
2018-03-07T13:06:14.367Z,60.73
2018-03-07T13:08:42.204Z,60.89
2018-03-07T13:11:10.203Z,60.62
2018-03-07T13:13:37.809Z,60.47
2018-03-07T13:16:05.351Z,60.07
2018-03-07T13:18:32.903Z,59.07
2018-03-07T13:21:01.378Z,58.50
2018-03-07T13:23:29.504Z,58.21
2018-03-07T13:25:57.087Z,57.73
2018-03-07T13:28:25.318Z,57.61
2018-03-07T13:30:52.904Z,57.29
2018-03-07T13:33:20.473Z,57.04
2018-03-07T13:35:48.072Z,57.05
2018-03-07T13:38:15.618Z,56.32
2018-03-07T13:40:43.230Z,56.32
2018-03-07T13:43:10.839Z,56.43
2018-03-07T13:45:38.964Z,56.45
2018-03-07T13:48:06.561Z,56.31
2018-03-07T13:50:38.574Z,56.52
2018-03-07T13:53:06.254Z,56.43
2018-03-07T13:55:33.838Z,56.46
2018-03-07T13:58:02.459Z,56.80
2018-03-07T14:00:30.183Z,56.82
2018-03-07T14:02:57.730Z,56.77
2018-03-07T14:05:25.330Z,56.73
2018-03-07T14:07:53.176Z,56.96
2018-03-07T14:10:20.774Z,57.09
2018-03-07T14:12:49.272Z,56.99
2018-03-07T14:15:16.863Z,56.95
2018-03-07T14:17:44.522Z,56.77
2018-03-07T14:20:12.106Z,57.19
2018-03-07T14:22:39.703Z,56.83
2018-03-07T14:25:07.995Z,56.54
2018-03-07T14:27:35.536Z,56.42
2018-03-07T14:30:03.216Z,56.15
2018-03-07T14:32:31.402Z,56.14
2018-03-07T14:34:58.992Z,55.91
2018-03-07T14:37:26.534Z,56.79
2018-03-07T14:39:54.147Z,56.40
2018-03-07T14:42:21.712Z,56.14
2018-03-07T14:44:49.263Z,56.17
2018-03-07T14:47:16.876Z,56.29
2018-03-07T14:49:44.422Z,56.37
2018-03-07T14:52:12.002Z,56.70
2018-03-07T14:54:39.595Z,56.62
2018-03-07T14:57:07.814Z,55.93
2018-03-07T14:59:35.460Z,55.27
2018-03-07T15:02:03.043Z,54.62
2018-03-07T15:04:30.593Z,54.57
2018-03-07T15:06:58.541Z,54.10
2018-03-07T15:09:26.100Z,54.05
2018-03-07T15:11:53.703Z,54.75
2018-03-07T15:14:21.239Z,55.27
2018-03-07T15:16:49.097Z,55.50
2018-03-07T15:19:16.683Z,55.71
2018-03-07T15:21:44.278Z,55.70
2018-03-07T15:24:11.828Z,55.74
2018-03-07T15:26:39.399Z,56.00
2018-03-07T15:29:06.947Z,56.15
2018-03-07T15:31:34.928Z,56.13
2018-03-07T15:34:02.478Z,56.13
2018-03-07T15:36:30.729Z,56.31
2018-03-07T15:38:58.269Z,56.55
2018-03-07T15:41:25.861Z,56.60
2018-03-07T15:43:53.406Z,56.63
2018-03-07T15:46:22.198Z,56.58
2018-03-07T15:48:50.897Z,56.66
2018-03-07T15:51:18.447Z,56.81
2018-03-07T15:53:46.090Z,56.95
2018-03-07T15:56:13.674Z,57.11
2018-03-07T15:58:41.523Z,57.23
2018-03-07T16:19:52.155Z,57.98
2018-03-07T16:22:19.699Z,58.32
2018-03-07T16:24:47.387Z,59.18
2018-03-07T16:27:15.559Z,59.93
2018-03-07T16:29:44.203Z,60.32
2018-03-07T16:32:11.783Z,60.43
2018-03-07T16:34:39.860Z,60.50
2018-03-07T16:37:08.850Z,60.65
2018-03-07T16:39:36.391Z,61.13
2018-03-07T16:42:05.067Z,61.45
2018-03-07T16:44:32.660Z,61.48
2018-03-07T16:47:00.680Z,61.83
2018-03-07T16:49:29.046Z,62.02
2018-03-07T16:51:56.639Z,62.42
2018-03-07T16:54:24.567Z,63.86
2018-03-07T16:56:52.407Z,64.19
2018-03-07T16:59:20.019Z,63.71
2018-03-07T17:01:47.986Z,63.80
2018-03-07T17:04:15.543Z,64.74
2018-03-07T17:06:43.144Z,65.81
2018-03-07T17:09:10.704Z,66.21
2018-03-07T17:11:39.054Z,66.49
2018-03-07T17:14:07.162Z,65.43
2018-03-07T17:16:34.711Z,66.21
2018-03-07T17:19:02.312Z,68.72
2018-03-07T17:21:29.959Z,68.30
2018-03-07T17:23:57.517Z,67.36
2018-03-07T17:26:25.111Z,66.79
2018-03-07T17:28:52.687Z,67.56
2018-03-07T17:31:21.522Z,68.09
2018-03-07T17:33:49.120Z,68.12
2018-03-07T17:36:16.688Z,69.16
2018-03-07T17:38:44.286Z,68.45
2018-03-07T17:41:11.888Z,68.79
2018-03-07T17:43:40.466Z,68.80
2018-03-07T17:46:08.294Z,68.54
2018-03-07T17:48:35.848Z,68.28
2018-03-07T17:51:03.822Z,68.58
2018-03-07T17:53:31.441Z,68.85
2018-03-07T17:55:59.028Z,69.83
2018-03-07T17:58:27.054Z,70.35
2018-03-07T18:00:54.634Z,69.56
2018-03-07T18:03:22.570Z,69.48
2018-03-07T18:05:50.320Z,68.98
2018-03-07T18:08:17.867Z,69.12
2018-03-07T18:10:45.446Z,70.30
2018-03-07T18:13:13.512Z,71.62
2018-03-07T18:15:41.122Z,73.28
2018-03-07T18:18:08.677Z,72.48
2018-03-07T18:20:36.597Z,71.56
2018-03-07T18:23:05.297Z,72.25
2018-03-07T18:25:32.857Z,71.68
2018-03-07T18:28:00.843Z,71.69
2018-03-07T18:30:28.410Z,71.70
2018-03-07T18:32:56.342Z,71.07
2018-03-07T18:35:23.936Z,70.26
2018-03-07T18:37:51.578Z,70.90
2018-03-07T18:40:19.137Z,70.88
2018-03-07T18:42:46.741Z,71.64
2018-03-07T18:45:14.283Z,71.51
2018-03-07T18:47:41.875Z,70.66
2018-03-07T18:50:10.103Z,70.39
2018-03-07T18:52:37.705Z,69.33
2018-03-07T18:55:05.363Z,68.46
2018-03-07T18:57:33.461Z,68.23
2018-03-07T19:00:01.386Z,69.28
2018-03-07T19:02:29.939Z,68.69
2018-03-07T19:04:57.716Z,69.01
2018-03-07T19:07:26.177Z,69.50
2018-03-07T19:09:53.979Z,70.82
2018-03-07T19:12:22.276Z,70.19
2018-03-07T19:14:51.360Z,69.98
2018-03-07T19:17:19.392Z,71.54
2018-03-07T19:19:47.873Z,73.28
2018-03-07T19:22:16.587Z,73.51
2018-03-07T19:24:44.169Z,73.50
2018-03-07T19:27:12.559Z,73.03
2018-03-07T19:29:40.103Z,73.87
2018-03-07T19:32:09.045Z,73.46
2018-03-07T19:34:37.035Z,72.88
2018-03-07T19:37:05.487Z,72.06
2018-03-07T19:39:34.879Z,71.93
2018-03-07T19:42:03.308Z,70.62
2018-03-07T19:44:31.060Z,71.85
2018-03-07T19:46:58.625Z,73.03
2018-03-07T19:49:26.353Z,74.19
2018-03-07T19:51:54.031Z,72.78
2018-03-07T19:54:21.592Z,73.36
2018-03-07T19:56:49.319Z,72.68
2018-03-07T19:59:16.862Z,71.79
2018-03-07T20:01:44.820Z,70.78
2018-03-07T20:04:12.893Z,71.41
2018-03-07T20:06:40.491Z,73.73
2018-03-07T20:09:10.365Z,75.61
2018-03-07T20:11:37.990Z,74.81
2018-03-07T20:14:05.558Z,73.60
2018-03-07T20:16:33.646Z,73.59
2018-03-07T20:19:01.225Z,74.40
2018-03-07T20:21:30.025Z,75.01
2018-03-07T20:23:57.763Z,75.28
2018-03-07T20:26:26.617Z,73.80
2018-03-07T20:28:55.388Z,72.57
2018-03-07T20:31:23.212Z,72.11
2018-03-07T20:33:51.604Z,72.78
2018-03-07T20:36:19.636Z,73.39
2018-03-07T20:38:47.234Z,74.42
2018-03-07T20:41:14.878Z,75.26
2018-03-07T20:43:43.720Z,76.04
2018-03-07T20:46:11.298Z,76.72
2018-03-07T20:48:38.859Z,76.60
2018-03-07T20:51:06.448Z,76.99
2018-03-07T20:53:34.051Z,77.29
2018-03-07T20:56:03.286Z,77.63
2018-03-07T20:58:31.143Z,77.59
2018-03-07T21:00:58.746Z,76.06
2018-03-07T21:03:26.714Z,75.38
2018-03-07T21:05:54.529Z,75.00
2018-03-07T21:08:22.136Z,73.85
2018-03-07T21:10:50.499Z,72.75
2018-03-07T21:13:18.037Z,73.32
2018-03-07T21:15:45.635Z,73.76
2018-03-07T21:18:13.770Z,73.17
2018-03-07T21:20:41.315Z,72.38
2018-03-07T21:23:09.357Z,71.97
2018-03-07T21:25:37.165Z,71.38
2018-03-07T21:28:05.886Z,71.18
2018-03-07T21:30:33.532Z,70.61
2018-03-07T21:33:01.122Z,70.53
2018-03-07T21:35:28.738Z,70.45
2018-03-07T21:37:57.095Z,70.75
2018-03-07T21:40:24.631Z,71.47
2018-03-07T21:42:52.224Z,71.14
2018-03-07T21:45:20.507Z,71.24
2018-03-07T21:47:48.064Z,70.68
2018-03-07T21:50:15.668Z,70.26
2018-03-07T21:52:43.708Z,70.35
2018-03-07T21:55:11.254Z,70.03
2018-03-07T21:57:39.206Z,69.43
2018-03-07T22:00:06.747Z,69.94
2018-03-07T22:02:34.348Z,70.22
2018-03-07T22:05:02.843Z,69.77
2018-03-07T22:07:30.432Z,69.55
2018-03-07T22:09:57.983Z,69.24
2018-03-07T22:12:25.570Z,69.40
2018-03-07T22:14:53.113Z,69.65
2018-03-07T22:17:20.712Z,69.25
2018-03-07T22:19:49.386Z,68.99
2018-03-07T22:22:16.979Z,68.73
2018-03-07T22:24:44.517Z,68.22
2018-03-07T22:27:12.058Z,68.46
2018-03-07T22:29:39.643Z,69.05
2018-03-07T22:32:07.226Z,69.12
2018-03-07T22:34:34.802Z,68.90
2018-03-07T22:37:02.343Z,68.82
2018-03-07T22:39:29.932Z,69.67
2018-03-07T22:41:57.479Z,69.28
2018-03-07T22:44:25.073Z,67.44
2018-03-07T22:46:53.143Z,67.09
2018-03-07T22:49:21.571Z,67.15
2018-03-07T22:51:49.745Z,66.94
2018-03-07T22:54:17.327Z,65.68
2018-03-07T22:56:44.861Z,65.17
2018-03-07T22:59:12.693Z,65.91
2018-03-07T23:01:40.280Z,66.25
2018-03-07T23:04:07.818Z,66.34
2018-03-07T23:06:35.866Z,65.59
2018-03-07T23:09:03.474Z,66.25
2018-03-07T23:11:31.096Z,66.32
2018-03-07T23:13:58.651Z,65.90
2018-03-07T23:16:26.326Z,65.46
2018-03-07T23:18:53.866Z,65.30
2018-03-07T23:21:21.402Z,65.01
2018-03-07T23:23:49.326Z,64.03
2018-03-07T23:26:16.865Z,65.28
2018-03-07T23:28:44.452Z,64.66
2018-03-07T23:31:11.990Z,65.88
2018-03-07T23:33:39.995Z,67.15
2018-03-07T23:36:08.269Z,66.50
2018-03-07T23:38:35.810Z,64.42
2018-03-07T23:41:04.109Z,66.29
2018-03-07T23:43:32.275Z,65.70
2018-03-07T23:45:59.854Z,65.22
2018-03-07T23:48:27.704Z,64.96
2018-03-07T23:50:55.477Z,64.84
2018-03-07T23:53:23.324Z,64.52
2018-03-07T23:55:50.860Z,63.90
2018-03-07T23:58:19.077Z,63.06
